sensor_id;sensor_type;location;lat;lon;timestamp;P1;durP1;ratioP1;P2;durP2;ratioP2
60975;SDS011;46849;48.154;17.042;2022-10-18T00:02:16;7.60;;;4.03;;
60975;SDS011;46849;48.154;17.042;2022-10-18T00:05:03;8.25;;;3.80;;
60975;SDS011;46849;48.154;17.042;2022-10-18T00:07:48;7.70;;;4.05;;
60975;SDS011;46849;48.154;17.042;2022-10-18T00:10:33;13.85;;;4.65;;
60975;SDS011;46849;48.154;17.042;2022-10-18T00:13:18;7.18;;;4.50;;
60975;SDS011;46849;48.154;17.042;2022-10-18T00:16:04;9.25;;;3.90;;
60975;SDS011;46849;48.154;17.042;2022-10-18T00:18:52;6.60;;;3.65;;
60975;SDS011;46849;48.154;17.042;2022-10-18T00:21:37;7.20;;;4.28;;
60975;SDS011;46849;48.154;17.042;2022-10-18T00:24:22;6.25;;;3.45;;
60975;SDS011;46849;48.154;17.042;2022-10-18T00:27:06;7.75;;;4.80;;
60975;SDS011;46849;48.154;17.042;2022-10-18T00:29:52;9.57;;;4.13;;
60975;SDS011;46849;48.154;17.042;2022-10-18T00:32:40;7.20;;;4.32;;
60975;SDS011;46849;48.154;17.042;2022-10-18T00:35:26;6.60;;;3.72;;
60975;SDS011;46849;48.154;17.042;2022-10-18T00:38:10;7.72;;;4.15;;
60975;SDS011;46849;48.154;17.042;2022-10-18T00:40:54;9.38;;;4.80;;
60975;SDS011;46849;48.154;17.042;2022-10-18T00:46:45;6.93;;;4.35;;
60975;SDS011;46849;48.154;17.042;2022-10-18T00:49:39;7.78;;;4.28;;
60975;SDS011;46849;48.154;17.042;2022-10-18T00:52:46;10.15;;;4.45;;
60975;SDS011;46849;48.154;17.042;2022-10-18T00:55:35;8.43;;;4.20;;
60975;SDS011;46849;48.154;17.042;2022-10-18T00:58:20;9.30;;;4.32;;
60975;SDS011;46849;48.154;17.042;2022-10-18T01:01:05;8.95;;;4.55;;
60975;SDS011;46849;48.154;17.042;2022-10-18T01:03:49;7.80;;;4.25;;
60975;SDS011;46849;48.154;17.042;2022-10-18T01:12:52;7.20;;;4.32;;
60975;SDS011;46849;48.154;17.042;2022-10-18T01:19:02;8.07;;;4.10;;
60975;SDS011;46849;48.154;17.042;2022-10-18T01:31:22;6.43;;;3.80;;
60975;SDS011;46849;48.154;17.042;2022-10-18T01:34:15;6.05;;;3.50;;
60975;SDS011;46849;48.154;17.042;2022-10-18T01:37:02;9.30;;;4.13;;
60975;SDS011;46849;48.154;17.042;2022-10-18T01:39:52;6.72;;;4.63;;
60975;SDS011;46849;48.154;17.042;2022-10-18T01:42:39;8.00;;;4.10;;
60975;SDS011;46849;48.154;17.042;2022-10-18T01:45:26;6.70;;;4.45;;
60975;SDS011;46849;48.154;17.042;2022-10-18T01:48:11;7.32;;;4.05;;
60975;SDS011;46849;48.154;17.042;2022-10-18T01:50:58;8.18;;;4.75;;
60975;SDS011;46849;48.154;17.042;2022-10-18T01:53:42;7.78;;;4.43;;
60975;SDS011;46849;48.154;17.042;2022-10-18T02:09:09;8.32;;;5.15;;
60975;SDS011;46849;48.154;17.042;2022-10-18T02:11:59;9.23;;;4.70;;
60975;SDS011;46849;48.154;17.042;2022-10-18T02:14:47;8.50;;;4.35;;
60975;SDS011;46849;48.154;17.042;2022-10-18T02:17:33;8.48;;;4.65;;
60975;SDS011;46849;48.154;17.042;2022-10-18T02:20:19;7.10;;;4.65;;
60975;SDS011;46849;48.154;17.042;2022-10-18T02:23:07;8.02;;;4.68;;
60975;SDS011;46849;48.154;17.042;2022-10-18T02:25:54;7.78;;;4.85;;
60975;SDS011;46849;48.154;17.042;2022-10-18T02:28:39;9.80;;;4.75;;
60975;SDS011;46849;48.154;17.042;2022-10-18T02:31:26;6.00;;;4.07;;
60975;SDS011;46849;48.154;17.042;2022-10-18T02:34:19;5.85;;;4.25;;
60975;SDS011;46849;48.154;17.042;2022-10-18T02:37:04;7.10;;;4.05;;
60975;SDS011;46849;48.154;17.042;2022-10-18T02:39:49;8.60;;;4.63;;
60975;SDS011;46849;48.154;17.042;2022-10-18T02:42:35;8.45;;;4.50;;
60975;SDS011;46849;48.154;17.042;2022-10-18T02:45:21;8.98;;;4.40;;
60975;SDS011;46849;48.154;17.042;2022-10-18T02:48:06;8.30;;;4.22;;
60975;SDS011;46849;48.154;17.042;2022-10-18T02:50:51;6.47;;;4.72;;
60975;SDS011;46849;48.154;17.042;2022-10-18T02:53:35;9.82;;;4.53;;
60975;SDS011;46849;48.154;17.042;2022-10-18T02:56:20;8.30;;;4.20;;
60975;SDS011;46849;48.154;17.042;2022-10-18T02:59:05;6.15;;;4.00;;
60975;SDS011;46849;48.154;17.042;2022-10-18T03:01:50;7.13;;;5.10;;
60975;SDS011;46849;48.154;17.042;2022-10-18T03:04:37;6.97;;;5.30;;
60975;SDS011;46849;48.154;17.042;2022-10-18T03:07:43;9.05;;;4.95;;
60975;SDS011;46849;48.154;17.042;2022-10-18T03:10:53;7.70;;;4.65;;
60975;SDS011;46849;48.154;17.042;2022-10-18T03:13:39;7.25;;;5.07;;
60975;SDS011;46849;48.154;17.042;2022-10-18T03:16:24;7.22;;;5.28;;
60975;SDS011;46849;48.154;17.042;2022-10-18T03:19:10;8.05;;;5.47;;
60975;SDS011;46849;48.154;17.042;2022-10-18T03:22:00;9.02;;;5.50;;
60975;SDS011;46849;48.154;17.042;2022-10-18T03:24:45;12.82;;;5.07;;
60975;SDS011;46849;48.154;17.042;2022-10-18T03:27:29;10.65;;;5.72;;
60975;SDS011;46849;48.154;17.042;2022-10-18T03:30:13;12.35;;;5.07;;
60975;SDS011;46849;48.154;17.042;2022-10-18T03:32:58;8.57;;;5.03;;
60975;SDS011;46849;48.154;17.042;2022-10-18T03:35:42;8.15;;;4.88;;
60975;SDS011;46849;48.154;17.042;2022-10-18T03:38:27;9.07;;;4.90;;
60975;SDS011;46849;48.154;17.042;2022-10-18T03:41:12;6.32;;;3.88;;
60975;SDS011;46849;48.154;17.042;2022-10-18T03:43:57;7.95;;;4.13;;
60975;SDS011;46849;48.154;17.042;2022-10-18T03:46:41;6.50;;;4.47;;
60975;SDS011;46849;48.154;17.042;2022-10-18T03:49:26;10.98;;;4.85;;
60975;SDS011;46849;48.154;17.042;2022-10-18T03:52:11;11.50;;;4.88;;
60975;SDS011;46849;48.154;17.042;2022-10-18T03:54:55;9.80;;;4.68;;
60975;SDS011;46849;48.154;17.042;2022-10-18T03:57:40;9.23;;;4.63;;
60975;SDS011;46849;48.154;17.042;2022-10-18T04:00:24;6.63;;;4.53;;
60975;SDS011;46849;48.154;17.042;2022-10-18T04:03:09;8.55;;;5.05;;
60975;SDS011;46849;48.154;17.042;2022-10-18T04:05:54;8.68;;;5.78;;
60975;SDS011;46849;48.154;17.042;2022-10-18T04:08:38;7.43;;;4.82;;
60975;SDS011;46849;48.154;17.042;2022-10-18T04:11:23;7.75;;;4.63;;
60975;SDS011;46849;48.154;17.042;2022-10-18T04:14:09;7.75;;;4.60;;
60975;SDS011;46849;48.154;17.042;2022-10-18T04:16:53;6.90;;;4.15;;
60975;SDS011;46849;48.154;17.042;2022-10-18T04:19:38;7.45;;;4.55;;
60975;SDS011;46849;48.154;17.042;2022-10-18T04:22:24;9.88;;;5.10;;
60975;SDS011;46849;48.154;17.042;2022-10-18T04:25:08;6.90;;;4.68;;
60975;SDS011;46849;48.154;17.042;2022-10-18T04:27:53;7.72;;;4.80;;
60975;SDS011;46849;48.154;17.042;2022-10-18T04:30:37;8.32;;;4.55;;
60975;SDS011;46849;48.154;17.042;2022-10-18T04:33:22;11.27;;;4.55;;
60975;SDS011;46849;48.154;17.042;2022-10-18T04:36:07;9.15;;;4.57;;
60975;SDS011;46849;48.154;17.042;2022-10-18T04:38:52;7.70;;;4.28;;
60975;SDS011;46849;48.154;17.042;2022-10-18T04:41:37;7.22;;;4.32;;
60975;SDS011;46849;48.154;17.042;2022-10-18T04:44:22;13.02;;;4.88;;
60975;SDS011;46849;48.154;17.042;2022-10-18T04:47:06;11.13;;;4.75;;
60975;SDS011;46849;48.154;17.042;2022-10-18T04:49:51;6.65;;;4.18;;
60975;SDS011;46849;48.154;17.042;2022-10-18T04:52:36;5.88;;;3.80;;
60975;SDS011;46849;48.154;17.042;2022-10-18T04:55:20;7.05;;;4.55;;
60975;SDS011;46849;48.154;17.042;2022-10-18T04:58:05;9.52;;;4.35;;
60975;SDS011;46849;48.154;17.042;2022-10-18T05:00:49;8.32;;;5.32;;
60975;SDS011;46849;48.154;17.042;2022-10-18T05:03:35;8.77;;;5.30;;
60975;SDS011;46849;48.154;17.042;2022-10-18T05:06:20;8.05;;;4.50;;
60975;SDS011;46849;48.154;17.042;2022-10-18T05:09:05;8.93;;;5.18;;
60975;SDS011;46849;48.154;17.042;2022-10-18T05:11:50;12.05;;;5.28;;
60975;SDS011;46849;48.154;17.042;2022-10-18T05:14:35;9.57;;;5.03;;
60975;SDS011;46849;48.154;17.042;2022-10-18T05:17:19;8.90;;;5.03;;
60975;SDS011;46849;48.154;17.042;2022-10-18T05:20:03;8.88;;;5.40;;
60975;SDS011;46849;48.154;17.042;2022-10-18T05:22:48;7.15;;;4.85;;
60975;SDS011;46849;48.154;17.042;2022-10-18T05:25:33;6.45;;;4.72;;
60975;SDS011;46849;48.154;17.042;2022-10-18T05:28:18;8.30;;;5.15;;
60975;SDS011;46849;48.154;17.042;2022-10-18T05:31:04;10.82;;;5.10;;
60975;SDS011;46849;48.154;17.042;2022-10-18T05:33:49;9.63;;;5.20;;
60975;SDS011;46849;48.154;17.042;2022-10-18T05:36:34;11.10;;;5.20;;
60975;SDS011;46849;48.154;17.042;2022-10-18T05:39:18;9.40;;;5.20;;
60975;SDS011;46849;48.154;17.042;2022-10-18T05:42:06;6.40;;;5.28;;
60975;SDS011;46849;48.154;17.042;2022-10-18T05:44:51;7.93;;;4.57;;
60975;SDS011;46849;48.154;17.042;2022-10-18T05:47:35;12.05;;;4.63;;
60975;SDS011;46849;48.154;17.042;2022-10-18T05:50:23;10.43;;;6.00;;
60975;SDS011;46849;48.154;17.042;2022-10-18T05:53:08;12.55;;;5.45;;
60975;SDS011;46849;48.154;17.042;2022-10-18T05:55:58;11.43;;;5.22;;
60975;SDS011;46849;48.154;17.042;2022-10-18T05:58:48;9.52;;;5.70;;
60975;SDS011;46849;48.154;17.042;2022-10-18T06:01:35;7.68;;;4.72;;
60975;SDS011;46849;48.154;17.042;2022-10-18T06:04:20;7.78;;;5.18;;
60975;SDS011;46849;48.154;17.042;2022-10-18T06:07:09;9.00;;;4.70;;
60975;SDS011;46849;48.154;17.042;2022-10-18T06:09:54;7.70;;;4.75;;
60975;SDS011;46849;48.154;17.042;2022-10-18T06:12:39;11.63;;;5.40;;
60975;SDS011;46849;48.154;17.042;2022-10-18T06:15:23;7.60;;;5.35;;
60975;SDS011;46849;48.154;17.042;2022-10-18T06:18:08;8.77;;;4.80;;
60975;SDS011;46849;48.154;17.042;2022-10-18T06:20:57;9.18;;;4.97;;
60975;SDS011;46849;48.154;17.042;2022-10-18T06:23:42;8.90;;;3.88;;
60975;SDS011;46849;48.154;17.042;2022-10-18T06:26:28;7.32;;;4.20;;
60975;SDS011;46849;48.154;17.042;2022-10-18T06:29:13;7.93;;;4.35;;
60975;SDS011;46849;48.154;17.042;2022-10-18T06:31:58;8.60;;;5.00;;
60975;SDS011;46849;48.154;17.042;2022-10-18T06:34:42;9.35;;;4.68;;
60975;SDS011;46849;48.154;17.042;2022-10-18T06:37:28;8.98;;;4.70;;
60975;SDS011;46849;48.154;17.042;2022-10-18T06:40:13;9.63;;;5.20;;
60975;SDS011;46849;48.154;17.042;2022-10-18T06:42:58;14.35;;;5.97;;
60975;SDS011;46849;48.154;17.042;2022-10-18T06:45:47;7.40;;;4.82;;
60975;SDS011;46849;48.154;17.042;2022-10-18T06:48:33;7.03;;;4.57;;
60975;SDS011;46849;48.154;17.042;2022-10-18T06:51:18;12.10;;;4.90;;
60975;SDS011;46849;48.154;17.042;2022-10-18T06:54:03;9.20;;;4.65;;
60975;SDS011;46849;48.154;17.042;2022-10-18T06:56:49;8.38;;;4.53;;
60975;SDS011;46849;48.154;17.042;2022-10-18T06:59:37;8.35;;;4.15;;
60975;SDS011;46849;48.154;17.042;2022-10-18T07:02:21;9.48;;;5.60;;
60975;SDS011;46849;48.154;17.042;2022-10-18T07:05:06;9.68;;;4.80;;
60975;SDS011;46849;48.154;17.042;2022-10-18T07:07:52;8.52;;;4.93;;
60975;SDS011;46849;48.154;17.042;2022-10-18T07:10:36;8.57;;;4.72;;
60975;SDS011;46849;48.154;17.042;2022-10-18T07:13:21;9.43;;;5.35;;
60975;SDS011;46849;48.154;17.042;2022-10-18T07:16:07;8.85;;;4.78;;
60975;SDS011;46849;48.154;17.042;2022-10-18T07:18:54;7.38;;;4.55;;
60975;SDS011;46849;48.154;17.042;2022-10-18T07:21:39;8.30;;;4.97;;
60975;SDS011;46849;48.154;17.042;2022-10-18T07:24:24;8.95;;;5.85;;
60975;SDS011;46849;48.154;17.042;2022-10-18T07:27:08;9.98;;;5.15;;
60975;SDS011;46849;48.154;17.042;2022-10-18T07:29:53;9.07;;;5.50;;
60975;SDS011;46849;48.154;17.042;2022-10-18T07:32:37;12.93;;;5.90;;
60975;SDS011;46849;48.154;17.042;2022-10-18T07:35:22;7.38;;;4.85;;
60975;SDS011;46849;48.154;17.042;2022-10-18T07:38:07;12.05;;;5.70;;
60975;SDS011;46849;48.154;17.042;2022-10-18T07:40:55;9.88;;;5.22;;
60975;SDS011;46849;48.154;17.042;2022-10-18T07:43:43;8.70;;;5.63;;
60975;SDS011;46849;48.154;17.042;2022-10-18T07:46:29;9.30;;;5.90;;
60975;SDS011;46849;48.154;17.042;2022-10-18T07:49:14;10.32;;;5.43;;
60975;SDS011;46849;48.154;17.042;2022-10-18T07:51:59;11.88;;;6.40;;
60975;SDS011;46849;48.154;17.042;2022-10-18T07:54:43;8.43;;;5.40;;
60975;SDS011;46849;48.154;17.042;2022-10-18T07:57:28;7.53;;;4.75;;
60975;SDS011;46849;48.154;17.042;2022-10-18T08:00:13;7.80;;;3.80;;
60975;SDS011;46849;48.154;17.042;2022-10-18T08:02:59;9.13;;;5.30;;
60975;SDS011;46849;48.154;17.042;2022-10-18T08:05:49;9.90;;;4.05;;
60975;SDS011;46849;48.154;17.042;2022-10-18T08:08:36;6.97;;;4.38;;
60975;SDS011;46849;48.154;17.042;2022-10-18T08:11:22;7.10;;;3.47;;
60975;SDS011;46849;48.154;17.042;2022-10-18T08:14:08;6.53;;;4.15;;
60975;SDS011;46849;48.154;17.042;2022-10-18T08:16:54;7.60;;;4.38;;
60975;SDS011;46849;48.154;17.042;2022-10-18T08:19:38;7.88;;;5.10;;
60975;SDS011;46849;48.154;17.042;2022-10-18T08:22:24;9.27;;;4.53;;
60975;SDS011;46849;48.154;17.042;2022-10-18T08:25:08;9.77;;;4.97;;
60975;SDS011;46849;48.154;17.042;2022-10-18T08:27:53;8.13;;;3.92;;
60975;SDS011;46849;48.154;17.042;2022-10-18T08:30:37;13.27;;;4.57;;
60975;SDS011;46849;48.154;17.042;2022-10-18T08:33:23;6.82;;;4.18;;
60975;SDS011;46849;48.154;17.042;2022-10-18T08:36:08;7.85;;;5.00;;
60975;SDS011;46849;48.154;17.042;2022-10-18T08:38:55;6.75;;;4.28;;
60975;SDS011;46849;48.154;17.042;2022-10-18T08:44:48;10.52;;;4.65;;
60975;SDS011;46849;48.154;17.042;2022-10-18T08:47:35;9.35;;;4.20;;
60975;SDS011;46849;48.154;17.042;2022-10-18T08:50:24;8.95;;;4.93;;
60975;SDS011;46849;48.154;17.042;2022-10-18T08:53:13;9.93;;;4.87;;
60975;SDS011;46849;48.154;17.042;2022-10-18T08:58:49;7.95;;;4.20;;
60975;SDS011;46849;48.154;17.042;2022-10-18T09:04:42;7.55;;;3.78;;
60975;SDS011;46849;48.154;17.042;2022-10-18T09:10:47;6.30;;;4.15;;
60975;SDS011;46849;48.154;17.042;2022-10-18T09:20:22;10.18;;;4.03;;
60975;SDS011;46849;48.154;17.042;2022-10-18T09:23:34;9.27;;;4.63;;
60975;SDS011;46849;48.154;17.042;2022-10-18T09:26:35;7.25;;;4.55;;
60975;SDS011;46849;48.154;17.042;2022-10-18T09:29:31;7.22;;;4.55;;
60975;SDS011;46849;48.154;17.042;2022-10-18T09:32:40;5.88;;;4.72;;
60975;SDS011;46849;48.154;17.042;2022-10-18T09:35:38;7.72;;;4.40;;
60975;SDS011;46849;48.154;17.042;2022-10-18T09:38:32;8.10;;;4.25;;
60975;SDS011;46849;48.154;17.042;2022-10-18T09:45:12;7.32;;;4.47;;
60975;SDS011;46849;48.154;17.042;2022-10-18T09:48:13;7.28;;;4.07;;
60975;SDS011;46849;48.154;17.042;2022-10-18T09:51:07;6.43;;;4.60;;
60975;SDS011;46849;48.154;17.042;2022-10-18T09:54:03;11.68;;;3.90;;
60975;SDS011;46849;48.154;17.042;2022-10-18T09:57:02;6.97;;;4.38;;
60975;SDS011;46849;48.154;17.042;2022-10-18T09:59:49;7.45;;;4.65;;
60975;SDS011;46849;48.154;17.042;2022-10-18T10:02:34;7.00;;;4.25;;
60975;SDS011;46849;48.154;17.042;2022-10-18T10:05:19;8.93;;;4.57;;
60975;SDS011;46849;48.154;17.042;2022-10-18T10:08:03;7.05;;;4.65;;
60975;SDS011;46849;48.154;17.042;2022-10-18T10:10:48;6.28;;;3.70;;
60975;SDS011;46849;48.154;17.042;2022-10-18T10:13:33;7.35;;;3.80;;
60975;SDS011;46849;48.154;17.042;2022-10-18T10:16:17;5.82;;;3.85;;
60975;SDS011;46849;48.154;17.042;2022-10-18T10:19:02;8.40;;;3.50;;
60975;SDS011;46849;48.154;17.042;2022-10-18T10:21:47;4.85;;;3.60;;
60975;SDS011;46849;48.154;17.042;2022-10-18T10:24:48;5.18;;;3.45;;
60975;SDS011;46849;48.154;17.042;2022-10-18T10:27:36;5.95;;;4.10;;
60975;SDS011;46849;48.154;17.042;2022-10-18T10:30:27;9.93;;;4.30;;
60975;SDS011;46849;48.154;17.042;2022-10-18T10:36:19;8.55;;;4.07;;
60975;SDS011;46849;48.154;17.042;2022-10-18T10:39:11;6.10;;;3.58;;
60975;SDS011;46849;48.154;17.042;2022-10-18T10:42:02;5.30;;;3.55;;
60975;SDS011;46849;48.154;17.042;2022-10-18T10:44:50;4.28;;;3.05;;
60975;SDS011;46849;48.154;17.042;2022-10-18T10:47:38;7.25;;;3.55;;
60975;SDS011;46849;48.154;17.042;2022-10-18T10:50:24;5.00;;;3.38;;
60975;SDS011;46849;48.154;17.042;2022-10-18T10:53:23;6.22;;;2.85;;
60975;SDS011;46849;48.154;17.042;2022-10-18T10:56:22;6.03;;;3.22;;
60975;SDS011;46849;48.154;17.042;2022-10-18T10:59:13;7.30;;;3.70;;
60975;SDS011;46849;48.154;17.042;2022-10-18T11:05:14;5.63;;;3.10;;
60975;SDS011;46849;48.154;17.042;2022-10-18T11:08:04;4.88;;;3.33;;
60975;SDS011;46849;48.154;17.042;2022-10-18T11:10:53;5.30;;;3.63;;
60975;SDS011;46849;48.154;17.042;2022-10-18T11:20:16;6.97;;;3.67;;
60975;SDS011;46849;48.154;17.042;2022-10-18T11:23:11;7.90;;;3.35;;
60975;SDS011;46849;48.154;17.042;2022-10-18T11:38:10;6.57;;;3.22;;
60975;SDS011;46849;48.154;17.042;2022-10-18T11:47:44;9.52;;;3.75;;
60975;SDS011;46849;48.154;17.042;2022-10-18T11:56:50;4.18;;;2.97;;
60975;SDS011;46849;48.154;17.042;2022-10-18T12:00:51;5.22;;;4.00;;
60975;SDS011;46849;48.154;17.042;2022-10-18T12:06:04;10.15;;;3.78;;
60975;SDS011;46849;48.154;17.042;2022-10-18T12:09:02;4.28;;;3.25;;
60975;SDS011;46849;48.154;17.042;2022-10-18T12:11:56;3.67;;;2.97;;
60975;SDS011;46849;48.154;17.042;2022-10-18T12:14:48;5.28;;;2.90;;
60975;SDS011;46849;48.154;17.042;2022-10-18T12:17:45;6.25;;;3.22;;
60975;SDS011;46849;48.154;17.042;2022-10-18T12:20:41;3.97;;;3.00;;
60975;SDS011;46849;48.154;17.042;2022-10-18T12:26:43;5.45;;;3.42;;
60975;SDS011;46849;48.154;17.042;2022-10-18T12:29:53;7.38;;;3.45;;
60975;SDS011;46849;48.154;17.042;2022-10-18T12:32:43;5.85;;;3.55;;
60975;SDS011;46849;48.154;17.042;2022-10-18T12:35:29;6.97;;;4.20;;
60975;SDS011;46849;48.154;17.042;2022-10-18T12:38:24;5.13;;;3.38;;
60975;SDS011;46849;48.154;17.042;2022-10-18T12:41:18;3.85;;;2.75;;
60975;SDS011;46849;48.154;17.042;2022-10-18T12:44:25;7.15;;;3.35;;
60975;SDS011;46849;48.154;17.042;2022-10-18T12:47:32;4.88;;;3.05;;
60975;SDS011;46849;48.154;17.042;2022-10-18T12:50:30;6.68;;;3.22;;
60975;SDS011;46849;48.154;17.042;2022-10-18T12:53:19;6.63;;;3.55;;
60975;SDS011;46849;48.154;17.042;2022-10-18T13:04:43;7.00;;;3.45;;
60975;SDS011;46849;48.154;17.042;2022-10-18T13:07:32;7.18;;;3.83;;
60975;SDS011;46849;48.154;17.042;2022-10-18T13:10:33;8.50;;;4.10;;
60975;SDS011;46849;48.154;17.042;2022-10-18T13:13:25;7.90;;;4.30;;
60975;SDS011;46849;48.154;17.042;2022-10-18T13:19:13;6.45;;;3.20;;
60975;SDS011;46849;48.154;17.042;2022-10-18T13:28:36;7.75;;;4.35;;
60975;SDS011;46849;48.154;17.042;2022-10-18T13:31:38;4.88;;;3.60;;
60975;SDS011;46849;48.154;17.042;2022-10-18T13:34:34;8.60;;;3.95;;
60975;SDS011;46849;48.154;17.042;2022-10-18T13:37:22;7.82;;;3.95;;
60975;SDS011;46849;48.154;17.042;2022-10-18T13:40:13;8.63;;;4.28;;
60975;SDS011;46849;48.154;17.042;2022-10-18T13:52:37;7.10;;;3.77;;
60975;SDS011;46849;48.154;17.042;2022-10-18T13:58:54;8.55;;;4.72;;
60975;SDS011;46849;48.154;17.042;2022-10-18T14:08:04;9.55;;;4.65;;
60975;SDS011;46849;48.154;17.042;2022-10-18T14:17:17;7.93;;;4.53;;
60975;SDS011;46849;48.154;17.042;2022-10-18T14:20:36;11.05;;;4.28;;
60975;SDS011;46849;48.154;17.042;2022-10-18T14:23:27;8.50;;;4.22;;
60975;SDS011;46849;48.154;17.042;2022-10-18T14:26:18;8.10;;;4.30;;
60975;SDS011;46849;48.154;17.042;2022-10-18T14:29:05;7.97;;;4.47;;
60975;SDS011;46849;48.154;17.042;2022-10-18T14:31:53;7.00;;;4.30;;
60975;SDS011;46849;48.154;17.042;2022-10-18T14:34:41;7.55;;;4.15;;
60975;SDS011;46849;48.154;17.042;2022-10-18T14:37:34;5.47;;;4.10;;
60975;SDS011;46849;48.154;17.042;2022-10-18T14:40:31;9.50;;;4.63;;
60975;SDS011;46849;48.154;17.042;2022-10-18T14:43:26;10.95;;;4.68;;
60975;SDS011;46849;48.154;17.042;2022-10-18T14:46:24;9.07;;;4.97;;
60975;SDS011;46849;48.154;17.042;2022-10-18T14:49:10;7.57;;;4.93;;
60975;SDS011;46849;48.154;17.042;2022-10-18T14:51:56;6.82;;;4.03;;
60975;SDS011;46849;48.154;17.042;2022-10-18T14:54:43;7.78;;;4.63;;
60975;SDS011;46849;48.154;17.042;2022-10-18T14:57:35;8.18;;;4.10;;
60975;SDS011;46849;48.154;17.042;2022-10-18T15:00:53;8.60;;;4.32;;
60975;SDS011;46849;48.154;17.042;2022-10-18T15:06:19;7.25;;;4.25;;
60975;SDS011;46849;48.154;17.042;2022-10-18T15:09:03;6.97;;;4.60;;
60975;SDS011;46849;48.154;17.042;2022-10-18T15:11:48;8.95;;;4.47;;
60975;SDS011;46849;48.154;17.042;2022-10-18T15:14:35;7.80;;;4.75;;
60975;SDS011;46849;48.154;17.042;2022-10-18T15:17:24;6.93;;;4.53;;
60975;SDS011;46849;48.154;17.042;2022-10-18T15:23:23;6.70;;;4.45;;
60975;SDS011;46849;48.154;17.042;2022-10-18T15:26:11;7.55;;;4.80;;
60975;SDS011;46849;48.154;17.042;2022-10-18T15:28:58;5.90;;;4.30;;
60975;SDS011;46849;48.154;17.042;2022-10-18T15:31:43;9.73;;;5.13;;
60975;SDS011;46849;48.154;17.042;2022-10-18T15:34:27;6.15;;;4.50;;
60975;SDS011;46849;48.154;17.042;2022-10-18T15:37:16;8.60;;;4.80;;
60975;SDS011;46849;48.154;17.042;2022-10-18T15:46:25;9.20;;;5.53;;
60975;SDS011;46849;48.154;17.042;2022-10-18T15:54:55;6.80;;;4.93;;
60975;SDS011;46849;48.154;17.042;2022-10-18T15:57:40;9.70;;;4.97;;
60975;SDS011;46849;48.154;17.042;2022-10-18T16:00:26;9.25;;;4.85;;
60975;SDS011;46849;48.154;17.042;2022-10-18T16:03:10;8.70;;;4.97;;
60975;SDS011;46849;48.154;17.042;2022-10-18T16:06:02;6.88;;;4.88;;
60975;SDS011;46849;48.154;17.042;2022-10-18T16:08:50;8.55;;;5.40;;
60975;SDS011;46849;48.154;17.042;2022-10-18T16:11:36;9.60;;;5.40;;
60975;SDS011;46849;48.154;17.042;2022-10-18T16:14:20;12.32;;;6.30;;
60975;SDS011;46849;48.154;17.042;2022-10-18T16:17:05;8.68;;;5.22;;
60975;SDS011;46849;48.154;17.042;2022-10-18T16:19:50;8.65;;;5.28;;
60975;SDS011;46849;48.154;17.042;2022-10-18T16:22:34;8.75;;;5.32;;
60975;SDS011;46849;48.154;17.042;2022-10-18T16:25:21;8.48;;;4.97;;
60975;SDS011;46849;48.154;17.042;2022-10-18T16:28:11;9.80;;;5.53;;
60975;SDS011;46849;48.154;17.042;2022-10-18T16:30:57;10.88;;;5.30;;
60975;SDS011;46849;48.154;17.042;2022-10-18T16:33:44;8.02;;;4.85;;
60975;SDS011;46849;48.154;17.042;2022-10-18T16:36:29;9.02;;;5.25;;
60975;SDS011;46849;48.154;17.042;2022-10-18T16:39:16;13.40;;;4.88;;
60975;SDS011;46849;48.154;17.042;2022-10-18T16:42:03;9.02;;;4.95;;
60975;SDS011;46849;48.154;17.042;2022-10-18T16:44:48;9.23;;;5.72;;
60975;SDS011;46849;48.154;17.042;2022-10-18T16:47:33;6.65;;;4.72;;
60975;SDS011;46849;48.154;17.042;2022-10-18T16:50:18;9.85;;;5.18;;
60975;SDS011;46849;48.154;17.042;2022-10-18T16:53:04;8.00;;;4.78;;
60975;SDS011;46849;48.154;17.042;2022-10-18T16:55:53;11.35;;;5.22;;
60975;SDS011;46849;48.154;17.042;2022-10-18T16:58:40;7.22;;;4.97;;
60975;SDS011;46849;48.154;17.042;2022-10-18T17:01:25;8.18;;;5.60;;
60975;SDS011;46849;48.154;17.042;2022-10-18T17:04:10;10.52;;;5.50;;
60975;SDS011;46849;48.154;17.042;2022-10-18T17:06:56;15.43;;;7.18;;
60975;SDS011;46849;48.154;17.042;2022-10-18T17:09:55;9.73;;;5.97;;
60975;SDS011;46849;48.154;17.042;2022-10-18T17:12:40;8.02;;;5.40;;
60975;SDS011;46849;48.154;17.042;2022-10-18T17:15:24;7.28;;;4.72;;
60975;SDS011;46849;48.154;17.042;2022-10-18T17:18:14;10.48;;;5.30;;
60975;SDS011;46849;48.154;17.042;2022-10-18T17:21:00;9.80;;;5.43;;
60975;SDS011;46849;48.154;17.042;2022-10-18T17:23:48;7.82;;;4.90;;
60975;SDS011;46849;48.154;17.042;2022-10-18T17:26:34;7.95;;;5.60;;
60975;SDS011;46849;48.154;17.042;2022-10-18T17:29:19;10.85;;;6.03;;
60975;SDS011;46849;48.154;17.042;2022-10-18T17:32:06;8.20;;;5.20;;
60975;SDS011;46849;48.154;17.042;2022-10-18T17:34:57;7.03;;;5.15;;
60975;SDS011;46849;48.154;17.042;2022-10-18T17:37:45;8.65;;;5.18;;
60975;SDS011;46849;48.154;17.042;2022-10-18T17:40:32;11.00;;;5.30;;
60975;SDS011;46849;48.154;17.042;2022-10-18T17:43:20;11.60;;;5.18;;
60975;SDS011;46849;48.154;17.042;2022-10-18T17:46:05;10.55;;;5.78;;
60975;SDS011;46849;48.154;17.042;2022-10-18T17:48:51;10.55;;;4.95;;
60975;SDS011;46849;48.154;17.042;2022-10-18T17:51:36;12.77;;;5.32;;
60975;SDS011;46849;48.154;17.042;2022-10-18T17:54:21;10.00;;;5.85;;
60975;SDS011;46849;48.154;17.042;2022-10-18T17:57:06;7.18;;;5.20;;
60975;SDS011;46849;48.154;17.042;2022-10-18T18:00:01;9.48;;;5.32;;
60975;SDS011;46849;48.154;17.042;2022-10-18T18:02:56;10.48;;;5.88;;
60975;SDS011;46849;48.154;17.042;2022-10-18T18:05:41;11.20;;;5.10;;
60975;SDS011;46849;48.154;17.042;2022-10-18T18:08:26;8.70;;;4.90;;
60975;SDS011;46849;48.154;17.042;2022-10-18T18:11:11;10.40;;;5.90;;
60975;SDS011;46849;48.154;17.042;2022-10-18T18:13:57;10.43;;;6.18;;
60975;SDS011;46849;48.154;17.042;2022-10-18T18:16:44;10.90;;;6.13;;
60975;SDS011;46849;48.154;17.042;2022-10-18T18:19:31;8.35;;;5.88;;
60975;SDS011;46849;48.154;17.042;2022-10-18T18:22:16;8.88;;;5.43;;
60975;SDS011;46849;48.154;17.042;2022-10-18T18:25:01;11.63;;;6.18;;
60975;SDS011;46849;48.154;17.042;2022-10-18T18:27:45;9.45;;;5.60;;
60975;SDS011;46849;48.154;17.042;2022-10-18T18:30:30;12.57;;;6.45;;
60975;SDS011;46849;48.154;17.042;2022-10-18T18:33:14;9.15;;;6.35;;
60975;SDS011;46849;48.154;17.042;2022-10-18T18:36:03;9.18;;;6.32;;
60975;SDS011;46849;48.154;17.042;2022-10-18T18:38:52;9.40;;;6.22;;
60975;SDS011;46849;48.154;17.042;2022-10-18T18:41:42;12.00;;;6.70;;
60975;SDS011;46849;48.154;17.042;2022-10-18T18:44:27;10.50;;;6.55;;
60975;SDS011;46849;48.154;17.042;2022-10-18T18:47:12;11.32;;;6.03;;
60975;SDS011;46849;48.154;17.042;2022-10-18T18:49:56;13.15;;;7.57;;
60975;SDS011;46849;48.154;17.042;2022-10-18T18:52:41;11.05;;;6.93;;
60975;SDS011;46849;48.154;17.042;2022-10-18T18:55:26;10.48;;;6.95;;
60975;SDS011;46849;48.154;17.042;2022-10-18T18:58:11;12.80;;;6.38;;
60975;SDS011;46849;48.154;17.042;2022-10-18T19:00:55;12.10;;;7.60;;
60975;SDS011;46849;48.154;17.042;2022-10-18T19:03:39;12.63;;;7.60;;
60975;SDS011;46849;48.154;17.042;2022-10-18T19:09:15;9.38;;;7.13;;
60975;SDS011;46849;48.154;17.042;2022-10-18T19:12:07;11.35;;;7.35;;
60975;SDS011;46849;48.154;17.042;2022-10-18T19:14:51;12.35;;;7.55;;
60975;SDS011;46849;48.154;17.042;2022-10-18T19:17:36;10.73;;;7.43;;
60975;SDS011;46849;48.154;17.042;2022-10-18T19:20:21;14.18;;;8.38;;